sensor_id;sensor_type;location;lat;lon;timestamp;P1;durP1;ratioP1;P2;durP2;ratioP2
64641;SDS011;59936;51.490;5.436;2024-03-06T00:01:15;8.10;;;5.70;;
64641;SDS011;59936;51.490;5.436;2024-03-06T00:03:44;7.20;;;4.90;;
64641;SDS011;59936;51.490;5.436;2024-03-06T00:06:11;6.50;;;3.50;;
64641;SDS011;59936;51.490;5.436;2024-03-06T00:08:38;6.00;;;4.20;;
64641;SDS011;59936;51.490;5.436;2024-03-06T00:11:04;6.50;;;4.10;;
64641;SDS011;59936;51.490;5.436;2024-03-06T00:13:31;4.70;;;2.80;;
64641;SDS011;59936;51.490;5.436;2024-03-06T00:15:58;5.10;;;3.50;;
64641;SDS011;59936;51.490;5.436;2024-03-06T00:18:25;4.40;;;2.70;;
64641;SDS011;59936;51.490;5.436;2024-03-06T00:20:52;4.80;;;3.30;;
64641;SDS011;59936;51.490;5.436;2024-03-06T00:23:19;4.50;;;2.90;;
64641;SDS011;59936;51.490;5.436;2024-03-06T00:25:45;4.60;;;3.30;;
64641;SDS011;59936;51.490;5.436;2024-03-06T00:28:12;4.60;;;2.80;;
64641;SDS011;59936;51.490;5.436;2024-03-06T00:30:39;4.50;;;3.10;;
64641;SDS011;59936;51.490;5.436;2024-03-06T00:33:06;4.20;;;2.70;;
64641;SDS011;59936;51.490;5.436;2024-03-06T00:35:33;4.00;;;3.40;;
64641;SDS011;59936;51.490;5.436;2024-03-06T00:38:00;4.10;;;2.90;;
64641;SDS011;59936;51.490;5.436;2024-03-06T00:40:27;4.30;;;2.90;;
64641;SDS011;59936;51.490;5.436;2024-03-06T00:42:54;4.90;;;3.60;;
64641;SDS011;59936;51.490;5.436;2024-03-06T00:45:21;4.60;;;3.00;;
64641;SDS011;59936;51.490;5.436;2024-03-06T00:47:48;6.00;;;4.10;;
64641;SDS011;59936;51.490;5.436;2024-03-06T00:50:15;5.40;;;3.50;;
64641;SDS011;59936;51.490;5.436;2024-03-06T00:52:43;5.70;;;3.90;;
64641;SDS011;59936;51.490;5.436;2024-03-06T00:55:10;4.70;;;3.50;;
64641;SDS011;59936;51.490;5.436;2024-03-06T00:57:37;3.80;;;2.20;;
64641;SDS011;59936;51.490;5.436;2024-03-06T01:00:04;4.80;;;3.30;;
64641;SDS011;59936;51.490;5.436;2024-03-06T01:02:31;5.70;;;3.60;;
64641;SDS011;59936;51.490;5.436;2024-03-06T01:07:48;6.00;;;5.40;;
64641;SDS011;59936;51.490;5.436;2024-03-06T01:10:15;5.80;;;3.80;;
64641;SDS011;59936;51.490;5.436;2024-03-06T01:12:42;5.80;;;3.50;;
64641;SDS011;59936;51.490;5.436;2024-03-06T01:15:09;5.10;;;3.50;;
64641;SDS011;59936;51.490;5.436;2024-03-06T01:17:36;4.30;;;2.80;;
64641;SDS011;59936;51.490;5.436;2024-03-06T01:20:03;5.20;;;3.20;;
64641;SDS011;59936;51.490;5.436;2024-03-06T01:22:32;5.20;;;3.80;;
64641;SDS011;59936;51.490;5.436;2024-03-06T01:25:00;4.10;;;2.70;;
64641;SDS011;59936;51.490;5.436;2024-03-06T01:27:27;3.80;;;2.80;;
64641;SDS011;59936;51.490;5.436;2024-03-06T01:29:54;4.60;;;3.10;;
64641;SDS011;59936;51.490;5.436;2024-03-06T01:32:21;5.00;;;3.10;;
64641;SDS011;59936;51.490;5.436;2024-03-06T01:34:48;3.90;;;3.00;;
64641;SDS011;59936;51.490;5.436;2024-03-06T01:37:15;3.80;;;3.00;;
64641;SDS011;59936;51.490;5.436;2024-03-06T01:39:42;4.00;;;2.80;;
64641;SDS011;59936;51.490;5.436;2024-03-06T01:42:09;4.40;;;3.10;;
64641;SDS011;59936;51.490;5.436;2024-03-06T01:44:36;5.10;;;3.70;;
64641;SDS011;59936;51.490;5.436;2024-03-06T01:47:03;4.50;;;2.60;;
64641;SDS011;59936;51.490;5.436;2024-03-06T01:49:30;4.20;;;2.30;;
64641;SDS011;59936;51.490;5.436;2024-03-06T01:51:58;4.60;;;2.80;;
64641;SDS011;59936;51.490;5.436;2024-03-06T01:54:27;5.20;;;3.30;;
64641;SDS011;59936;51.490;5.436;2024-03-06T01:56:55;5.00;;;4.00;;
64641;SDS011;59936;51.490;5.436;2024-03-06T01:59:25;4.30;;;2.70;;
64641;SDS011;59936;51.490;5.436;2024-03-06T02:01:53;4.80;;;3.20;;
64641;SDS011;59936;51.490;5.436;2024-03-06T02:04:20;5.30;;;3.30;;
64641;SDS011;59936;51.490;5.436;2024-03-06T02:06:49;4.40;;;2.30;;
64641;SDS011;59936;51.490;5.436;2024-03-06T02:09:16;4.70;;;3.40;;
64641;SDS011;59936;51.490;5.436;2024-03-06T02:11:44;4.00;;;3.20;;
64641;SDS011;59936;51.490;5.436;2024-03-06T02:14:11;4.40;;;3.30;;
64641;SDS011;59936;51.490;5.436;2024-03-06T02:16:38;5.30;;;3.90;;
64641;SDS011;59936;51.490;5.436;2024-03-06T02:19:05;5.00;;;3.40;;
64641;SDS011;59936;51.490;5.436;2024-03-06T02:21:33;6.40;;;3.80;;
64641;SDS011;59936;51.490;5.436;2024-03-06T02:24:00;6.30;;;4.40;;
64641;SDS011;59936;51.490;5.436;2024-03-06T02:26:27;6.40;;;3.90;;
64641;SDS011;59936;51.490;5.436;2024-03-06T02:28:54;6.60;;;3.90;;
64641;SDS011;59936;51.490;5.436;2024-03-06T02:31:23;4.80;;;3.40;;
64641;SDS011;59936;51.490;5.436;2024-03-06T02:33:50;6.80;;;4.40;;
64641;SDS011;59936;51.490;5.436;2024-03-06T02:36:17;6.50;;;4.10;;
64641;SDS011;59936;51.490;5.436;2024-03-06T02:38:45;7.00;;;4.40;;
64641;SDS011;59936;51.490;5.436;2024-03-06T02:41:12;6.20;;;4.10;;
64641;SDS011;59936;51.490;5.436;2024-03-06T02:43:39;5.80;;;4.60;;
64641;SDS011;59936;51.490;5.436;2024-03-06T02:46:06;6.90;;;4.20;;
64641;SDS011;59936;51.490;5.436;2024-03-06T02:48:33;6.90;;;4.30;;
64641;SDS011;59936;51.490;5.436;2024-03-06T02:51:00;6.80;;;4.70;;
64641;SDS011;59936;51.490;5.436;2024-03-06T02:53:27;6.50;;;4.30;;
64641;SDS011;59936;51.490;5.436;2024-03-06T02:55:54;4.20;;;2.30;;
64641;SDS011;59936;51.490;5.436;2024-03-06T02:58:21;5.60;;;3.90;;
64641;SDS011;59936;51.490;5.436;2024-03-06T03:00:48;5.00;;;3.00;;
64641;SDS011;59936;51.490;5.436;2024-03-06T03:03:15;4.80;;;2.30;;
64641;SDS011;59936;51.490;5.436;2024-03-06T03:05:42;5.00;;;3.70;;
64641;SDS011;59936;51.490;5.436;2024-03-06T03:08:08;4.20;;;3.30;;
64641;SDS011;59936;51.490;5.436;2024-03-06T03:10:35;4.40;;;3.20;;
64641;SDS011;59936;51.490;5.436;2024-03-06T03:13:02;3.90;;;2.30;;
64641;SDS011;59936;51.490;5.436;2024-03-06T03:15:29;4.30;;;2.90;;
64641;SDS011;59936;51.490;5.436;2024-03-06T03:17:56;4.40;;;3.20;;
64641;SDS011;59936;51.490;5.436;2024-03-06T03:20:23;4.20;;;3.10;;
64641;SDS011;59936;51.490;5.436;2024-03-06T03:22:50;4.80;;;3.40;;
64641;SDS011;59936;51.490;5.436;2024-03-06T03:25:17;4.30;;;3.20;;
64641;SDS011;59936;51.490;5.436;2024-03-06T03:27:44;3.80;;;2.60;;
64641;SDS011;59936;51.490;5.436;2024-03-06T03:30:10;4.50;;;2.90;;
64641;SDS011;59936;51.490;5.436;2024-03-06T03:32:37;4.50;;;3.30;;
64641;SDS011;59936;51.490;5.436;2024-03-06T03:35:05;4.20;;;3.10;;
64641;SDS011;59936;51.490;5.436;2024-03-06T03:37:33;4.10;;;3.00;;
64641;SDS011;59936;51.490;5.436;2024-03-06T03:40:00;3.90;;;2.20;;
64641;SDS011;59936;51.490;5.436;2024-03-06T03:42:27;4.90;;;3.30;;
64641;SDS011;59936;51.490;5.436;2024-03-06T03:44:54;4.60;;;3.20;;
64641;SDS011;59936;51.490;5.436;2024-03-06T03:47:21;4.90;;;3.40;;
64641;SDS011;59936;51.490;5.436;2024-03-06T03:49:48;4.70;;;3.20;;
64641;SDS011;59936;51.490;5.436;2024-03-06T03:52:15;5.30;;;3.70;;
64641;SDS011;59936;51.490;5.436;2024-03-06T03:54:42;5.20;;;3.60;;
64641;SDS011;59936;51.490;5.436;2024-03-06T03:57:08;4.30;;;3.00;;
64641;SDS011;59936;51.490;5.436;2024-03-06T03:59:35;4.00;;;3.10;;
64641;SDS011;59936;51.490;5.436;2024-03-06T04:02:03;3.80;;;2.30;;
64641;SDS011;59936;51.490;5.436;2024-03-06T04:04:30;3.80;;;2.60;;
64641;SDS011;59936;51.490;5.436;2024-03-06T04:06:57;3.60;;;2.70;;
64641;SDS011;59936;51.490;5.436;2024-03-06T04:09:24;5.20;;;3.60;;
64641;SDS011;59936;51.490;5.436;2024-03-06T04:11:51;5.30;;;3.40;;
64641;SDS011;59936;51.490;5.436;2024-03-06T04:14:18;4.60;;;2.80;;
64641;SDS011;59936;51.490;5.436;2024-03-06T04:16:45;4.50;;;3.20;;
64641;SDS011;59936;51.490;5.436;2024-03-06T04:19:12;5.10;;;3.50;;
64641;SDS011;59936;51.490;5.436;2024-03-06T04:21:42;5.00;;;3.70;;
64641;SDS011;59936;51.490;5.436;2024-03-06T04:24:09;4.60;;;3.10;;
64641;SDS011;59936;51.490;5.436;2024-03-06T04:26:36;3.90;;;2.50;;
64641;SDS011;59936;51.490;5.436;2024-03-06T04:29:03;4.30;;;3.50;;
64641;SDS011;59936;51.490;5.436;2024-03-06T04:31:30;4.60;;;3.50;;
64641;SDS011;59936;51.490;5.436;2024-03-06T04:33:57;4.80;;;3.40;;
64641;SDS011;59936;51.490;5.436;2024-03-06T04:36:24;5.30;;;3.30;;
64641;SDS011;59936;51.490;5.436;2024-03-06T04:38:51;5.50;;;3.70;;
64641;SDS011;59936;51.490;5.436;2024-03-06T04:41:18;5.60;;;4.20;;
64641;SDS011;59936;51.490;5.436;2024-03-06T04:43:45;5.00;;;3.40;;
64641;SDS011;59936;51.490;5.436;2024-03-06T04:46:13;4.80;;;3.40;;
64641;SDS011;59936;51.490;5.436;2024-03-06T04:48:39;4.40;;;2.30;;
64641;SDS011;59936;51.490;5.436;2024-03-06T04:51:06;4.20;;;3.30;;
64641;SDS011;59936;51.490;5.436;2024-03-06T04:53:33;5.40;;;3.20;;
64641;SDS011;59936;51.490;5.436;2024-03-06T04:56:00;5.00;;;3.00;;
64641;SDS011;59936;51.490;5.436;2024-03-06T04:58:27;3.80;;;2.80;;
64641;SDS011;59936;51.490;5.436;2024-03-06T05:00:54;4.80;;;2.50;;
64641;SDS011;59936;51.490;5.436;2024-03-06T05:03:21;3.30;;;2.20;;
64641;SDS011;59936;51.490;5.436;2024-03-06T05:05:47;3.90;;;2.80;;
64641;SDS011;59936;51.490;5.436;2024-03-06T05:08:14;4.50;;;2.80;;
64641;SDS011;59936;51.490;5.436;2024-03-06T05:10:41;4.70;;;3.00;;
64641;SDS011;59936;51.490;5.436;2024-03-06T05:13:08;3.80;;;2.00;;
64641;SDS011;59936;51.490;5.436;2024-03-06T05:15:35;5.20;;;3.40;;
64641;SDS011;59936;51.490;5.436;2024-03-06T05:18:02;5.30;;;3.90;;
64641;SDS011;59936;51.490;5.436;2024-03-06T05:20:29;4.90;;;3.10;;
64641;SDS011;59936;51.490;5.436;2024-03-06T05:22:56;4.70;;;3.40;;
64641;SDS011;59936;51.490;5.436;2024-03-06T05:25:23;4.90;;;3.20;;
64641;SDS011;59936;51.490;5.436;2024-03-06T05:27:50;3.80;;;2.60;;
64641;SDS011;59936;51.490;5.436;2024-03-06T05:30:16;4.20;;;3.00;;
64641;SDS011;59936;51.490;5.436;2024-03-06T05:32:43;5.10;;;3.30;;
64641;SDS011;59936;51.490;5.436;2024-03-06T05:35:10;5.40;;;3.50;;
64641;SDS011;59936;51.490;5.436;2024-03-06T05:37:37;4.40;;;3.00;;
64641;SDS011;59936;51.490;5.436;2024-03-06T05:40:04;4.40;;;3.30;;
64641;SDS011;59936;51.490;5.436;2024-03-06T05:42:32;5.40;;;3.40;;
64641;SDS011;59936;51.490;5.436;2024-03-06T05:44:59;4.90;;;3.60;;
64641;SDS011;59936;51.490;5.436;2024-03-06T05:47:26;4.60;;;3.20;;
64641;SDS011;59936;51.490;5.436;2024-03-06T05:49:53;5.20;;;3.40;;
64641;SDS011;59936;51.490;5.436;2024-03-06T05:52:19;4.00;;;2.40;;
64641;SDS011;59936;51.490;5.436;2024-03-06T05:54:46;4.50;;;2.90;;
64641;SDS011;59936;51.490;5.436;2024-03-06T05:57:13;4.60;;;2.30;;
64641;SDS011;59936;51.490;5.436;2024-03-06T05:59:40;4.20;;;2.30;;
64641;SDS011;59936;51.490;5.436;2024-03-06T06:02:07;4.00;;;2.70;;
64641;SDS011;59936;51.490;5.436;2024-03-06T06:04:34;4.70;;;3.10;;
64641;SDS011;59936;51.490;5.436;2024-03-06T06:07:01;4.20;;;2.70;;
64641;SDS011;59936;51.490;5.436;2024-03-06T06:09:28;4.70;;;3.40;;
64641;SDS011;59936;51.490;5.436;2024-03-06T06:11:55;4.50;;;3.20;;
64641;SDS011;59936;51.490;5.436;2024-03-06T06:14:21;4.30;;;3.10;;
64641;SDS011;59936;51.490;5.436;2024-03-06T06:16:48;4.30;;;3.20;;
64641;SDS011;59936;51.490;5.436;2024-03-06T06:19:15;4.70;;;3.40;;
64641;SDS011;59936;51.490;5.436;2024-03-06T06:21:42;4.10;;;3.00;;
64641;SDS011;59936;51.490;5.436;2024-03-06T06:24:09;3.50;;;2.80;;
64641;SDS011;59936;51.490;5.436;2024-03-06T06:26:36;3.80;;;2.60;;
64641;SDS011;59936;51.490;5.436;2024-03-06T06:29:03;3.80;;;2.70;;
64641;SDS011;59936;51.490;5.436;2024-03-06T06:31:29;4.60;;;3.20;;
64641;SDS011;59936;51.490;5.436;2024-03-06T06:33:56;4.50;;;3.00;;
64641;SDS011;59936;51.490;5.436;2024-03-06T06:36:23;4.30;;;2.80;;
64641;SDS011;59936;51.490;5.436;2024-03-06T06:38:50;4.80;;;3.90;;
64641;SDS011;59936;51.490;5.436;2024-03-06T06:41:19;5.60;;;3.20;;
64641;SDS011;59936;51.490;5.436;2024-03-06T06:43:46;4.50;;;3.00;;
64641;SDS011;59936;51.490;5.436;2024-03-06T06:46:13;4.80;;;3.00;;
64641;SDS011;59936;51.490;5.436;2024-03-06T06:48:40;6.00;;;3.90;;
64641;SDS011;59936;51.490;5.436;2024-03-06T06:51:07;4.40;;;2.70;;
64641;SDS011;59936;51.490;5.436;2024-03-06T06:53:34;5.00;;;3.60;;
64641;SDS011;59936;51.490;5.436;2024-03-06T06:56:01;4.80;;;3.10;;
64641;SDS011;59936;51.490;5.436;2024-03-06T06:58:28;5.30;;;3.50;;
64641;SDS011;59936;51.490;5.436;2024-03-06T07:00:55;4.60;;;3.00;;
64641;SDS011;59936;51.490;5.436;2024-03-06T07:03:22;4.10;;;3.00;;
64641;SDS011;59936;51.490;5.436;2024-03-06T07:05:49;4.20;;;3.30;;
64641;SDS011;59936;51.490;5.436;2024-03-06T07:08:15;4.40;;;2.80;;
64641;SDS011;59936;51.490;5.436;2024-03-06T07:10:42;5.20;;;3.70;;
64641;SDS011;59936;51.490;5.436;2024-03-06T07:13:09;5.70;;;3.70;;
64641;SDS011;59936;51.490;5.436;2024-03-06T07:15:36;5.00;;;3.40;;
64641;SDS011;59936;51.490;5.436;2024-03-06T07:18:03;4.80;;;2.90;;
64641;SDS011;59936;51.490;5.436;2024-03-06T07:20:30;5.40;;;3.40;;
64641;SDS011;59936;51.490;5.436;2024-03-06T07:22:57;5.80;;;4.00;;
64641;SDS011;59936;51.490;5.436;2024-03-06T07:25:24;4.80;;;3.60;;
64641;SDS011;59936;51.490;5.436;2024-03-06T07:27:51;6.30;;;4.10;;
64641;SDS011;59936;51.490;5.436;2024-03-06T07:30:18;6.10;;;4.00;;
64641;SDS011;59936;51.490;5.436;2024-03-06T07:32:45;5.30;;;2.90;;
64641;SDS011;59936;51.490;5.436;2024-03-06T07:35:11;7.00;;;4.30;;
64641;SDS011;59936;51.490;5.436;2024-03-06T07:37:38;7.20;;;4.10;;
64641;SDS011;59936;51.490;5.436;2024-03-06T07:40:08;6.20;;;3.70;;
64641;SDS011;59936;51.490;5.436;2024-03-06T07:42:35;6.00;;;4.00;;
64641;SDS011;59936;51.490;5.436;2024-03-06T07:45:02;6.00;;;4.00;;
64641;SDS011;59936;51.490;5.436;2024-03-06T07:47:31;5.00;;;3.30;;
64641;SDS011;59936;51.490;5.436;2024-03-06T07:49:58;4.90;;;3.50;;
64641;SDS011;59936;51.490;5.436;2024-03-06T07:52:25;5.40;;;3.50;;
64641;SDS011;59936;51.490;5.436;2024-03-06T07:54:52;5.70;;;3.60;;
64641;SDS011;59936;51.490;5.436;2024-03-06T07:57:18;4.10;;;2.90;;
64641;SDS011;59936;51.490;5.436;2024-03-06T07:59:45;5.80;;;3.70;;
64641;SDS011;59936;51.490;5.436;2024-03-06T08:02:12;5.60;;;3.80;;
64641;SDS011;59936;51.490;5.436;2024-03-06T08:04:39;8.00;;;5.70;;
64641;SDS011;59936;51.490;5.436;2024-03-06T08:07:06;6.60;;;4.90;;
64641;SDS011;59936;51.490;5.436;2024-03-06T08:09:33;9.00;;;6.60;;
64641;SDS011;59936;51.490;5.436;2024-03-06T08:12:00;12.60;;;6.80;;
64641;SDS011;59936;51.490;5.436;2024-03-06T08:14:27;7.90;;;4.90;;
64641;SDS011;59936;51.490;5.436;2024-03-06T08:16:53;7.60;;;5.20;;
64641;SDS011;59936;51.490;5.436;2024-03-06T08:19:20;9.40;;;5.60;;
64641;SDS011;59936;51.490;5.436;2024-03-06T08:21:47;7.40;;;4.80;;
64641;SDS011;59936;51.490;5.436;2024-03-06T08:24:14;7.70;;;4.40;;
64641;SDS011;59936;51.490;5.436;2024-03-06T08:29:07;7.80;;;5.60;;
64641;SDS011;59936;51.490;5.436;2024-03-06T08:31:34;7.10;;;4.40;;
64641;SDS011;59936;51.490;5.436;2024-03-06T08:34:01;5.80;;;4.40;;
64641;SDS011;59936;51.490;5.436;2024-03-06T08:36:28;6.30;;;4.90;;
64641;SDS011;59936;51.490;5.436;2024-03-06T08:41:21;6.10;;;3.50;;
64641;SDS011;59936;51.490;5.436;2024-03-06T08:43:48;6.20;;;4.10;;
64641;SDS011;59936;51.490;5.436;2024-03-06T08:46:15;7.10;;;4.60;;
64641;SDS011;59936;51.490;5.436;2024-03-06T08:48:42;6.50;;;4.70;;
64641;SDS011;59936;51.490;5.436;2024-03-06T08:53:36;7.70;;;5.20;;
64641;SDS011;59936;51.490;5.436;2024-03-06T08:56:04;6.30;;;4.50;;
64641;SDS011;59936;51.490;5.436;2024-03-06T08:58:31;8.50;;;6.10;;
64641;SDS011;59936;51.490;5.436;2024-03-06T09:00:58;6.50;;;5.20;;
64641;SDS011;59936;51.490;5.436;2024-03-06T09:05:52;7.90;;;5.90;;
64641;SDS011;59936;51.490;5.436;2024-03-06T09:08:19;9.50;;;6.10;;
64641;SDS011;59936;51.490;5.436;2024-03-06T09:10:46;10.20;;;7.50;;
64641;SDS011;59936;51.490;5.436;2024-03-06T09:13:12;8.00;;;5.40;;
64641;SDS011;59936;51.490;5.436;2024-03-06T09:18:06;8.50;;;5.90;;
64641;SDS011;59936;51.490;5.436;2024-03-06T09:20:33;9.70;;;6.20;;
64641;SDS011;59936;51.490;5.436;2024-03-06T09:23:00;7.00;;;4.80;;
64641;SDS011;59936;51.490;5.436;2024-03-06T09:25:27;8.50;;;6.10;;
64641;SDS011;59936;51.490;5.436;2024-03-06T09:30:20;7.30;;;4.40;;
64641;SDS011;59936;51.490;5.436;2024-03-06T09:32:47;7.80;;;5.10;;
64641;SDS011;59936;51.490;5.436;2024-03-06T09:35:14;7.40;;;5.00;;
64641;SDS011;59936;51.490;5.436;2024-03-06T09:37:41;7.00;;;4.60;;
64641;SDS011;59936;51.490;5.436;2024-03-06T09:42:36;10.40;;;6.30;;
64641;SDS011;59936;51.490;5.436;2024-03-06T09:45:04;8.70;;;4.80;;
64641;SDS011;59936;51.490;5.436;2024-03-06T09:47:32;7.10;;;4.90;;
64641;SDS011;59936;51.490;5.436;2024-03-06T09:50:05;6.90;;;4.30;;
64641;SDS011;59936;51.490;5.436;2024-03-06T09:55:06;6.60;;;4.50;;
64641;SDS011;59936;51.490;5.436;2024-03-06T09:57:33;6.50;;;4.60;;
64641;SDS011;59936;51.490;5.436;2024-03-06T10:00:00;6.50;;;4.60;;
64641;SDS011;59936;51.490;5.436;2024-03-06T10:02:42;5.40;;;3.70;;
64641;SDS011;59936;51.490;5.436;2024-03-06T10:07:50;6.30;;;3.90;;
64641;SDS011;59936;51.490;5.436;2024-03-06T10:10:19;5.30;;;4.00;;
64641;SDS011;59936;51.490;5.436;2024-03-06T10:12:46;6.70;;;4.10;;
64641;SDS011;59936;51.490;5.436;2024-03-06T10:15:13;6.20;;;3.70;;
64641;SDS011;59936;51.490;5.436;2024-03-06T10:22:52;5.70;;;3.40;;
64641;SDS011;59936;51.490;5.436;2024-03-06T10:25:20;6.20;;;3.70;;
64641;SDS011;59936;51.490;5.436;2024-03-06T10:28:07;7.80;;;4.50;;
64641;SDS011;59936;51.490;5.436;2024-03-06T10:33:07;5.80;;;3.50;;
64641;SDS011;59936;51.490;5.436;2024-03-06T10:35:36;5.40;;;2.70;;
64641;SDS011;59936;51.490;5.436;2024-03-06T10:38:06;6.00;;;3.40;;
64641;SDS011;59936;51.490;5.436;2024-03-06T10:40:35;4.60;;;3.00;;
64641;SDS011;59936;51.490;5.436;2024-03-06T10:48:30;5.10;;;3.20;;
64641;SDS011;59936;51.490;5.436;2024-03-06T10:50:59;3.80;;;2.20;;
64641;SDS011;59936;51.490;5.436;2024-03-06T10:55:55;5.00;;;3.30;;
64641;SDS011;59936;51.490;5.436;2024-03-06T10:58:24;4.90;;;3.10;;
64641;SDS011;59936;51.490;5.436;2024-03-06T11:00:54;5.10;;;3.40;;
64641;SDS011;59936;51.490;5.436;2024-03-06T11:03:22;3.90;;;2.30;;
64641;SDS011;59936;51.490;5.436;2024-03-06T11:08:18;3.80;;;2.50;;
64641;SDS011;59936;51.490;5.436;2024-03-06T11:10:45;4.80;;;2.70;;
64641;SDS011;59936;51.490;5.436;2024-03-06T11:13:24;5.40;;;3.70;;
64641;SDS011;59936;51.490;5.436;2024-03-06T11:15:52;6.30;;;3.90;;
64641;SDS011;59936;51.490;5.436;2024-03-06T11:23:32;4.60;;;2.80;;
64641;SDS011;59936;51.490;5.436;2024-03-06T11:26:02;3.40;;;2.10;;
64641;SDS011;59936;51.490;5.436;2024-03-06T11:28:35;4.40;;;2.60;;
64641;SDS011;59936;51.490;5.436;2024-03-06T11:33:37;4.80;;;3.00;;
64641;SDS011;59936;51.490;5.436;2024-03-06T11:36:19;3.20;;;1.70;;
64641;SDS011;59936;51.490;5.436;2024-03-06T11:41:31;3.40;;;2.20;;
64641;SDS011;59936;51.490;5.436;2024-03-06T11:46:48;2.50;;;1.20;;
64641;SDS011;59936;51.490;5.436;2024-03-06T11:49:29;3.00;;;1.30;;
64641;SDS011;59936;51.490;5.436;2024-03-06T11:51:59;3.20;;;1.50;;
64641;SDS011;59936;51.490;5.436;2024-03-06T11:54:31;3.60;;;1.90;;
64641;SDS011;59936;51.490;5.436;2024-03-06T11:59:29;4.60;;;2.40;;
64641;SDS011;59936;51.490;5.436;2024-03-06T12:02:00;3.80;;;2.00;;
64641;SDS011;59936;51.490;5.436;2024-03-06T12:04:30;3.50;;;2.10;;
64641;SDS011;59936;51.490;5.436;2024-03-06T12:07:00;3.70;;;2.30;;
64641;SDS011;59936;51.490;5.436;2024-03-06T12:11:55;4.40;;;2.30;;
64641;SDS011;59936;51.490;5.436;2024-03-06T12:14:22;3.50;;;1.30;;
64641;SDS011;59936;51.490;5.436;2024-03-06T12:16:59;5.00;;;3.20;;
64641;SDS011;59936;51.490;5.436;2024-03-06T12:19:28;3.60;;;2.10;;
64641;SDS011;59936;51.490;5.436;2024-03-06T12:24:29;3.30;;;2.10;;
64641;SDS011;59936;51.490;5.436;2024-03-06T12:27:03;3.70;;;1.80;;
64641;SDS011;59936;51.490;5.436;2024-03-06T12:29:34;4.50;;;1.90;;
64641;SDS011;59936;51.490;5.436;2024-03-06T12:32:02;4.40;;;2.40;;
64641;SDS011;59936;51.490;5.436;2024-03-06T12:37:07;5.20;;;2.70;;
64641;SDS011;59936;51.490;5.436;2024-03-06T12:39:35;4.30;;;2.30;;
64641;SDS011;59936;51.490;5.436;2024-03-06T12:42:02;3.90;;;2.00;;
64641;SDS011;59936;51.490;5.436;2024-03-06T12:44:29;3.30;;;2.10;;
64641;SDS011;59936;51.490;5.436;2024-03-06T12:49:23;2.80;;;1.80;;
64641;SDS011;59936;51.490;5.436;2024-03-06T12:51:49;3.10;;;1.90;;
64641;SDS011;59936;51.490;5.436;2024-03-06T12:54:16;3.40;;;2.00;;
64641;SDS011;59936;51.490;5.436;2024-03-06T12:56:45;5.00;;;2.60;;
64641;SDS011;59936;51.490;5.436;2024-03-06T13:01:39;3.20;;;1.90;;
64641;SDS011;59936;51.490;5.436;2024-03-06T13:04:06;4.00;;;2.30;;
64641;SDS011;59936;51.490;5.436;2024-03-06T13:06:32;3.80;;;1.90;;
64641;SDS011;59936;51.490;5.436;2024-03-06T13:08:59;4.40;;;2.90;;
64641;SDS011;59936;51.490;5.436;2024-03-06T13:13:53;4.10;;;2.80;;
64641;SDS011;59936;51.490;5.436;2024-03-06T13:16:20;4.40;;;2.90;;
64641;SDS011;59936;51.490;5.436;2024-03-06T13:18:47;4.30;;;3.20;;
64641;SDS011;59936;51.490;5.436;2024-03-06T13:21:13;5.40;;;2.90;;
64641;SDS011;59936;51.490;5.436;2024-03-06T13:26:07;3.20;;;2.10;;
64641;SDS011;59936;51.490;5.436;2024-03-06T13:28:34;2.80;;;1.90;;
64641;SDS011;59936;51.490;5.436;2024-03-06T13:33:28;5.70;;;3.20;;
64641;SDS011;59936;51.490;5.436;2024-03-06T13:35:54;4.40;;;2.40;;
64641;SDS011;59936;51.490;5.436;2024-03-06T13:38:21;3.40;;;2.40;;
64641;SDS011;59936;51.490;5.436;2024-03-06T13:43:15;2.80;;;1.90;;
64641;SDS011;59936;51.490;5.436;2024-03-06T13:45:51;2.80;;;1.60;;
64641;SDS011;59936;51.490;5.436;2024-03-06T13:48:18;2.70;;;1.50;;
64641;SDS011;59936;51.490;5.436;2024-03-06T13:50:45;2.90;;;1.80;;
64641;SDS011;59936;51.490;5.436;2024-03-06T13:55:40;2.40;;;1.70;;
64641;SDS011;59936;51.490;5.436;2024-03-06T13:58:07;3.30;;;2.40;;
64641;SDS011;59936;51.490;5.436;2024-03-06T14:00:34;3.50;;;1.60;;
64641;SDS011;59936;51.490;5.436;2024-03-06T14:03:01;2.40;;;1.50;;
64641;SDS011;59936;51.490;5.436;2024-03-06T14:07:54;2.10;;;1.40;;
64641;SDS011;59936;51.490;5.436;2024-03-06T14:10:21;2.70;;;2.00;;
64641;SDS011;59936;51.490;5.436;2024-03-06T14:12:48;3.00;;;2.30;;
64641;SDS011;59936;51.490;5.436;2024-03-06T14:15:15;4.60;;;2.90;;
64641;SDS011;59936;51.490;5.436;2024-03-06T14:20:09;2.70;;;1.70;;
64641;SDS011;59936;51.490;5.436;2024-03-06T14:22:37;3.70;;;2.50;;
64641;SDS011;59936;51.490;5.436;2024-03-06T14:25:04;3.20;;;2.50;;
64641;SDS011;59936;51.490;5.436;2024-03-06T14:27:31;3.80;;;1.70;;
64641;SDS011;59936;51.490;5.436;2024-03-06T14:32:25;3.00;;;2.40;;
64641;SDS011;59936;51.490;5.436;2024-03-06T14:34:52;3.20;;;2.20;;
64641;SDS011;59936;51.490;5.436;2024-03-06T14:37:19;3.40;;;1.60;;
64641;SDS011;59936;51.490;5.436;2024-03-06T14:39:46;3.40;;;1.90;;
64641;SDS011;59936;51.490;5.436;2024-03-06T14:44:39;2.30;;;1.40;;
64641;SDS011;59936;51.490;5.436;2024-03-06T14:47:06;3.00;;;1.40;;
64641;SDS011;59936;51.490;5.436;2024-03-06T14:49:33;2.90;;;2.00;;
64641;SDS011;59936;51.490;5.436;2024-03-06T14:52:00;3.10;;;2.00;;
64641;SDS011;59936;51.490;5.436;2024-03-06T14:56:54;3.00;;;1.40;;
64641;SDS011;59936;51.490;5.436;2024-03-06T14:59:22;2.50;;;1.80;;
64641;SDS011;59936;51.490;5.436;2024-03-06T15:04:15;3.30;;;1.50;;
64641;SDS011;59936;51.490;5.436;2024-03-06T15:06:42;2.60;;;1.40;;
64641;SDS011;59936;51.490;5.436;2024-03-06T15:09:11;2.30;;;1.40;;
64641;SDS011;59936;51.490;5.436;2024-03-06T15:11:39;4.60;;;2.90;;
64641;SDS011;59936;51.490;5.436;2024-03-06T15:16:34;3.10;;;1.60;;
64641;SDS011;59936;51.490;5.436;2024-03-06T15:19:02;4.50;;;1.80;;
64641;SDS011;59936;51.490;5.436;2024-03-06T15:21:29;2.80;;;1.90;;
64641;SDS011;59936;51.490;5.436;2024-03-06T15:23:56;3.00;;;1.80;;
64641;SDS011;59936;51.490;5.436;2024-03-06T15:28:50;2.20;;;1.50;;
64641;SDS011;59936;51.490;5.436;2024-03-06T15:31:17;2.30;;;1.20;;
64641;SDS011;59936;51.490;5.436;2024-03-06T15:33:44;2.20;;;1.70;;
64641;SDS011;59936;51.490;5.436;2024-03-06T15:38:37;2.90;;;1.70;;
64641;SDS011;59936;51.490;5.436;2024-03-06T15:41:04;4.60;;;1.90;;
64641;SDS011;59936;51.490;5.436;2024-03-06T15:43:31;3.70;;;2.60;;
64641;SDS011;59936;51.490;5.436;2024-03-06T15:48:24;2.70;;;1.70;;
64641;SDS011;59936;51.490;5.436;2024-03-06T15:50:51;2.80;;;1.80;;
64641;SDS011;59936;51.490;5.436;2024-03-06T15:53:18;2.60;;;1.50;;
64641;SDS011;59936;51.490;5.436;2024-03-06T15:58:11;3.70;;;2.10;;
64641;SDS011;59936;51.490;5.436;2024-03-06T16:00:38;3.50;;;2.00;;
64641;SDS011;59936;51.490;5.436;2024-03-06T16:03:05;2.60;;;1.50;;
64641;SDS011;59936;51.490;5.436;2024-03-06T16:07:59;3.80;;;1.90;;
64641;SDS011;59936;51.490;5.436;2024-03-06T16:10:27;3.70;;;2.70;;
64641;SDS011;59936;51.490;5.436;2024-03-06T16:12:54;7.50;;;2.30;;
64641;SDS011;59936;51.490;5.436;2024-03-06T16:15:21;3.60;;;2.20;;
64641;SDS011;59936;51.490;5.436;2024-03-06T16:20:14;4.70;;;3.30;;
64641;SDS011;59936;51.490;5.436;2024-03-06T16:22:41;4.20;;;2.60;;
64641;SDS011;59936;51.490;5.436;2024-03-06T16:25:08;5.20;;;4.20;;
64641;SDS011;59936;51.490;5.436;2024-03-06T16:27:35;4.30;;;2.90;;
64641;SDS011;59936;51.490;5.436;2024-03-06T16:32:29;4.90;;;3.00;;
64641;SDS011;59936;51.490;5.436;2024-03-06T16:34:56;4.30;;;2.70;;
64641;SDS011;59936;51.490;5.436;2024-03-06T16:37:23;4.60;;;2.60;;
64641;SDS011;59936;51.490;5.436;2024-03-06T16:42:16;4.80;;;3.30;;
64641;SDS011;59936;51.490;5.436;2024-03-06T16:44:43;4.20;;;2.50;;
64641;SDS011;59936;51.490;5.436;2024-03-06T16:47:10;3.80;;;2.30;;
64641;SDS011;59936;51.490;5.436;2024-03-06T16:52:04;3.50;;;2.20;;